createdAt,value
2018-12-14T00:02:44.797Z,100754.23
2018-12-14T00:07:47.292Z,100756.02
2018-12-14T00:12:49.889Z,100760.37
2018-12-14T00:17:52.401Z,100755.22
2018-12-14T00:22:54.968Z,100764.13
2018-12-14T00:27:57.465Z,100754.47
2018-12-14T00:33:00.060Z,100752.06
2018-12-14T00:38:02.552Z,100760.17
2018-12-14T00:43:05.456Z,100761.76
2018-12-14T00:48:08.050Z,100773.63
2018-12-14T00:53:10.640Z,100776.41
2018-12-14T00:58:13.124Z,100774.23
2018-12-14T01:03:15.627Z,100776.41
2018-12-14T01:08:18.105Z,100780.56
2018-12-14T01:13:20.620Z,100781.16
2018-12-14T01:18:23.129Z,100785.91
2018-12-14T01:23:25.692Z,100782.34
2018-12-14T01:28:29.624Z,100783.73
2018-12-14T01:33:32.113Z,100783.73
2018-12-14T01:38:34.625Z,100783.38
2018-12-14T01:43:37.200Z,100784.76
2018-12-14T01:48:39.893Z,100778.02
2018-12-14T01:53:42.384Z,100779.22
2018-12-14T01:58:44.981Z,100772.65
2018-12-14T02:03:47.473Z,100775.65
2018-12-14T02:08:50.065Z,100783.96
2018-12-14T02:13:52.550Z,100783.38
2018-12-14T02:18:55.152Z,100772.28
2018-12-14T02:23:58.262Z,100776.25
2018-12-14T02:29:00.753Z,100776.25
2018-12-14T02:34:03.353Z,100780.60
2018-12-14T02:39:06.144Z,100772.28
2018-12-14T02:44:08.741Z,100767.14
2018-12-14T02:49:11.333Z,100768.72
2018-12-14T02:54:13.924Z,100777.44
2018-12-14T02:59:16.414Z,100770.51
2018-12-14T03:04:19.012Z,100772.87
2018-12-14T03:09:21.505Z,100769.91
2018-12-14T03:14:24.121Z,100765.75
2018-12-14T03:19:26.699Z,100773.47
2018-12-14T03:24:29.180Z,100771.89
2018-12-14T03:29:31.682Z,100771.50
2018-12-14T03:34:34.270Z,100767.94
2018-12-14T03:39:36.791Z,100775.85
2018-12-14T03:44:39.304Z,100784.36
2018-12-14T03:49:41.842Z,100786.74
2018-12-14T03:54:44.342Z,100779.65
2018-12-14T03:59:47.453Z,100781.20
2018-12-14T04:04:50.045Z,100785.55
2018-12-14T04:09:52.639Z,100774.08
2018-12-14T04:14:55.340Z,100772.88
2018-12-14T04:19:57.821Z,100779.81
2018-12-14T04:25:00.313Z,100777.83
2018-12-14T04:30:03.205Z,100779.61
2018-12-14T04:35:05.915Z,100783.77
2018-12-14T04:40:09.254Z,100786.37
2018-12-14T04:45:11.774Z,100785.16
2018-12-14T04:50:14.542Z,100786.37
2018-12-14T04:55:17.012Z,100791.33
2018-12-14T05:00:19.508Z,100797.66
2018-12-14T05:05:22.269Z,100801.62
2018-12-14T05:10:24.894Z,100802.61
2018-12-14T05:15:27.385Z,100800.40
2018-12-14T05:20:29.893Z,100795.45
2018-12-14T05:25:32.365Z,100798.22
2018-12-14T05:30:35.488Z,100799.24
2018-12-14T05:35:37.970Z,100799.02
2018-12-14T05:40:40.450Z,100805.77
2018-12-14T05:45:42.924Z,100808.34
2018-12-14T05:50:45.558Z,100803.80
2018-12-14T05:55:48.036Z,100809.53
2018-12-14T06:00:50.580Z,100805.58
2018-12-14T06:05:53.736Z,100812.70
2018-12-14T06:10:56.201Z,100811.12
2018-12-14T06:15:58.984Z,100815.08
2018-12-14T06:21:01.479Z,100823.59
2018-12-14T06:26:04.010Z,100825.56
2018-12-14T06:31:06.505Z,100829.33
2018-12-14T06:36:09.229Z,100828.73
2018-12-14T06:41:11.700Z,100840.41
2018-12-14T06:46:14.169Z,100844.17
2018-12-14T06:51:16.654Z,100846.55
2018-12-14T06:56:19.125Z,100851.70
2018-12-14T07:01:21.620Z,100854.09
2018-12-14T07:06:24.090Z,100859.22
2018-12-14T07:11:26.589Z,100864.16
2018-12-14T07:16:29.137Z,100865.34
2018-12-14T07:21:31.643Z,100872.27
2018-12-14T07:26:34.561Z,100873.86
2018-12-14T07:31:37.053Z,100864.19
2018-12-14T07:36:39.612Z,100871.52
2018-12-14T07:41:42.121Z,100873.89
2018-12-14T07:46:44.700Z,100875.08
2018-12-14T07:51:47.221Z,100874.55
2018-12-14T07:56:49.705Z,100883.20
2018-12-14T08:01:52.265Z,100887.55
2018-12-14T08:06:55.577Z,100895.91
2018-12-14T08:11:58.082Z,100888.45
2018-12-14T08:17:00.569Z,100895.86
2018-12-14T08:22:03.173Z,100903.79
2018-12-14T08:27:05.762Z,100909.95
2018-12-14T08:32:08.261Z,100913.50
2018-12-14T08:37:10.752Z,100920.82
2018-12-14T08:42:13.336Z,100926.77
2018-12-14T08:47:15.828Z,100930.12
2018-12-14T08:52:19.149Z,100937.05
2018-12-14T08:57:21.737Z,100942.58
2018-12-14T09:02:24.338Z,100959.20
2018-12-14T09:07:26.925Z,100956.80
2018-12-14T09:12:29.628Z,100962.98
2018-12-14T09:17:32.218Z,100962.59
2018-12-14T09:22:34.817Z,100965.55
2018-12-14T09:27:37.409Z,100964.77
2018-12-14T09:32:40.107Z,100973.66
2018-12-14T09:37:42.692Z,100965.55
2018-12-14T09:42:45.190Z,100968.31
2018-12-14T09:47:47.672Z,100967.12
2018-12-14T09:52:50.168Z,100963.97
2018-12-14T09:57:52.764Z,100972.85
2018-12-14T10:02:55.277Z,100970.67
2018-12-14T10:07:57.859Z,100967.53
2018-12-14T10:13:00.449Z,100965.94
2018-12-14T10:18:02.966Z,100966.51
2018-12-14T10:23:05.484Z,100964.73
2018-12-14T10:28:08.001Z,100971.07
2018-12-14T10:33:10.622Z,100970.48
2018-12-14T10:38:13.209Z,100962.97
2018-12-14T10:43:15.806Z,100967.52
2018-12-14T10:48:18.401Z,100965.11
2018-12-14T10:53:20.890Z,100965.54
2018-12-14T10:58:23.407Z,100959.80
2018-12-14T11:03:25.909Z,100956.63
2018-12-14T11:08:28.572Z,100958.02
2018-12-14T11:13:31.101Z,100956.81
2018-12-14T11:18:33.629Z,100957.41
2018-12-14T11:23:36.353Z,100954.23
2018-12-14T11:28:38.865Z,100952.45
2018-12-14T11:33:41.442Z,100947.91
2018-12-14T11:38:44.193Z,100959.56
2018-12-14T11:43:47.195Z,100960.58
2018-12-14T11:48:49.672Z,100962.95
2018-12-14T11:53:52.152Z,100963.15
2018-12-14T11:58:54.648Z,100963.55
2018-12-14T12:03:57.130Z,100967.11
2018-12-14T12:08:59.704Z,100971.27
2018-12-14T12:14:02.249Z,100970.87
2018-12-14T12:19:04.721Z,100977.98
2018-12-14T12:24:07.852Z,100974.83
2018-12-14T12:29:10.323Z,100976.80
2018-12-14T12:34:12.793Z,100976.80
2018-12-14T12:39:15.260Z,100971.66
2018-12-14T12:44:17.753Z,100971.26
2018-12-14T12:49:20.227Z,100958.00
2018-12-14T12:54:22.725Z,100965.52
2018-12-14T12:59:25.920Z,100957.80
2018-12-14T13:04:28.908Z,100957.41
2018-12-14T13:09:31.544Z,100956.81
2018-12-14T13:14:39.854Z,100958.79
2018-12-14T13:19:38.541Z,100957.80
2018-12-14T13:24:41.173Z,100964.52
2018-12-14T13:29:43.969Z,100968.90
2018-12-14T13:34:46.432Z,100969.89
2018-12-14T13:39:48.916Z,100971.08
2018-12-14T13:44:51.725Z,100975.23
2018-12-14T13:49:54.477Z,100979.98
2018-12-14T13:54:57.036Z,100976.03
2018-12-14T13:59:59.516Z,100969.30
2018-12-14T14:05:02.207Z,100961.98
2018-12-14T14:10:06.553Z,100985.33
2018-12-14T14:15:09.785Z,100976.63
2018-12-14T14:20:12.281Z,100977.80
2018-12-14T14:25:17.408Z,100987.11
2018-12-14T14:30:19.709Z,100990.86
2018-12-14T14:35:22.181Z,100997.59
2018-12-14T14:40:24.649Z,100998.38
2018-12-14T14:45:27.577Z,101008.08
2018-12-14T14:50:30.058Z,101017.19
2018-12-14T14:55:32.533Z,101027.08
2018-12-14T15:00:35.024Z,101020.16
2018-12-14T15:05:37.516Z,101019.14
2018-12-14T15:10:40.004Z,101024.88
2018-12-14T15:15:42.473Z,101034.21
2018-12-14T15:20:44.941Z,101034.99
2018-12-14T15:25:47.457Z,101034.60
2018-12-14T15:30:49.936Z,101043.70
2018-12-14T15:35:52.438Z,101053.41
2018-12-14T15:40:54.936Z,101055.97
2018-12-14T15:45:57.436Z,101060.92
2018-12-14T15:50:59.937Z,101067.04
2018-12-14T15:56:02.870Z,101065.48
2018-12-14T16:01:05.825Z,101081.48
2018-12-14T16:06:08.349Z,101084.25
2018-12-14T16:11:10.869Z,101078.14
2018-12-14T16:16:13.373Z,101088.42
2018-12-14T16:21:15.893Z,101094.96
2018-12-14T16:26:18.401Z,101093.77
2018-12-14T16:31:20.901Z,101088.63
2018-12-14T16:36:23.366Z,101099.69
2018-12-14T16:41:26.141Z,101096.53
2018-12-14T16:46:28.637Z,101097.13
2018-12-14T16:51:31.129Z,101093.17
2018-12-14T16:56:33.685Z,101102.69
2018-12-14T17:01:36.313Z,101097.53
2018-12-14T17:06:38.844Z,101097.94
2018-12-14T17:11:41.389Z,101095.75
2018-12-14T17:16:43.924Z,101094.56
2018-12-14T17:21:47.011Z,101104.46
2018-12-14T17:26:49.485Z,101101.50
2018-12-14T17:31:52.013Z,101101.67
2018-12-14T17:36:54.589Z,101107.63
2018-12-14T17:41:57.209Z,101104.47
2018-12-14T17:46:59.705Z,101098.52
2018-12-14T17:52:02.231Z,101101.67
2018-12-14T17:57:04.729Z,101099.52
2018-12-14T18:02:08.084Z,101107.03
2018-12-14T18:07:10.565Z,101113.57
2018-12-14T18:12:13.725Z,101121.87
2018-12-14T18:17:16.208Z,101126.84
2018-12-14T18:22:18.906Z,101128.41
2018-12-14T18:27:21.400Z,101132.38
2018-12-14T18:32:23.933Z,101127.43
2018-12-14T18:37:27.273Z,101129.22
2018-12-14T18:42:29.873Z,101130.00
2018-12-14T18:47:32.428Z,101134.95
2018-12-14T18:52:35.008Z,101135.16
2018-12-14T18:57:37.472Z,101150.00
2018-12-14T19:02:40.421Z,101154.95
2018-12-14T19:07:43.149Z,101166.83
2018-12-14T19:12:45.685Z,101172.97
2018-12-14T19:17:48.321Z,101174.36
2018-12-14T19:22:50.824Z,101171.59
2018-12-14T19:27:53.393Z,101177.72
2018-12-14T19:32:55.909Z,101181.09
2018-12-14T19:37:59.277Z,101185.25
2018-12-14T19:43:01.797Z,101188.22
2018-12-14T19:48:04.297Z,101185.25
2018-12-14T19:53:06.806Z,101186.22
2018-12-14T19:58:09.356Z,101193.56
2018-12-14T20:03:11.848Z,101198.49
2018-12-14T20:08:14.436Z,101196.72
2018-12-14T20:13:16.956Z,101198.89
2018-12-14T20:18:19.529Z,101205.02
2018-12-14T20:23:22.224Z,101208.80
2018-12-14T20:28:24.716Z,101212.95
2018-12-14T20:33:27.203Z,101217.31
2018-12-14T20:38:29.696Z,101211.95
2018-12-14T20:43:32.195Z,101214.55
2018-12-14T20:48:34.780Z,101211.17
2018-12-14T20:53:37.381Z,101211.97
2018-12-14T20:58:39.872Z,101205.83
2018-12-14T21:03:42.418Z,101211.17
2018-12-14T21:08:45.156Z,101216.33
2018-12-14T21:13:47.657Z,101207.80
2018-12-14T21:18:50.148Z,101209.78
2018-12-14T21:23:52.641Z,101213.73
2018-12-14T21:28:55.285Z,101218.30
2018-12-14T21:33:57.825Z,101214.72
2018-12-14T21:39:00.328Z,101212.35
2018-12-14T21:44:02.841Z,101213.53
2018-12-14T21:49:05.404Z,101213.16
2018-12-14T21:54:07.995Z,101217.11
2018-12-14T21:59:10.594Z,101209.00
2018-12-14T22:04:13.105Z,101218.09
2018-12-14T22:09:15.585Z,101212.15
2018-12-14T22:14:18.169Z,101212.15
2018-12-14T22:19:20.761Z,101213.16
2018-12-14T22:24:23.258Z,101209.77
2018-12-14T22:29:26.377Z,101217.48
2018-12-14T22:34:28.861Z,101213.16
2018-12-14T22:39:31.771Z,101215.93
2018-12-14T22:44:34.348Z,101210.56
2018-12-14T22:49:36.946Z,101205.61
2018-12-14T22:54:39.641Z,101206.41
2018-12-14T22:59:42.128Z,101212.95
2018-12-14T23:04:44.621Z,101210.18
2018-12-14T23:09:47.089Z,101214.72
2018-12-14T23:14:49.565Z,101225.62
2018-12-14T23:19:52.994Z,101225.22
2018-12-14T23:24:55.617Z,101230.97
2018-12-14T23:29:58.113Z,101231.94
2018-12-14T23:35:00.618Z,101235.30
2018-12-14T23:40:04.160Z,101234.33
2018-12-14T23:45:06.662Z,101238.67
2018-12-14T23:50:09.160Z,101236.69
2018-12-14T23:55:11.661Z,101233.13
